createdAt,value
2018-05-15T00:00:04.205Z,82.30
2018-05-15T00:01:04.152Z,82.30
2018-05-15T00:02:04.079Z,82.20
2018-05-15T00:03:04.020Z,81.92
2018-05-15T00:04:03.978Z,81.44
2018-05-15T00:05:03.940Z,81.63
2018-05-15T00:06:03.895Z,80.96
2018-05-15T00:07:03.853Z,80.96
2018-05-15T00:08:03.813Z,81.15
2018-05-15T00:09:03.773Z,81.63
2018-05-15T00:10:03.735Z,81.25
2018-05-15T00:11:03.690Z,81.63
2018-05-15T00:12:03.651Z,80.87
2018-05-15T00:13:03.609Z,80.67
2018-05-15T00:14:03.568Z,79.91
2018-05-15T00:15:03.528Z,80.10
2018-05-15T00:16:03.485Z,80.96
2018-05-15T00:17:03.446Z,80.48
2018-05-15T00:18:03.405Z,80.96
2018-05-15T00:19:03.363Z,80.77
2018-05-15T00:20:03.322Z,80.58
2018-05-15T00:21:03.282Z,80.87
2018-05-15T00:22:03.239Z,80.77
2018-05-15T00:23:03.202Z,79.91
2018-05-15T00:24:03.158Z,80.58
2018-05-15T00:25:03.117Z,79.91
2018-05-15T00:26:03.079Z,79.62
2018-05-15T00:27:03.037Z,79.52
2018-05-15T00:28:02.993Z,79.05
2018-05-15T00:29:02.953Z,79.14
2018-05-15T00:30:02.915Z,78.86
2018-05-15T00:31:02.874Z,78.91
2018-05-15T00:32:02.832Z,79.05
2018-05-15T00:33:02.787Z,79.52
2018-05-15T00:34:02.748Z,79.52
2018-05-15T00:35:02.711Z,79.39
2018-05-15T00:36:02.669Z,79.10
2018-05-15T00:37:02.627Z,78.91
2018-05-15T00:38:02.589Z,78.63
2018-05-15T00:39:02.542Z,78.72
2018-05-15T00:40:02.510Z,79.00
2018-05-15T00:41:02.463Z,78.91
2018-05-15T00:42:02.422Z,78.53
2018-05-15T00:43:02.377Z,78.81
2018-05-15T00:44:02.337Z,78.72
2018-05-15T00:45:02.296Z,78.91
2018-05-15T00:46:02.254Z,78.24
2018-05-15T00:47:02.215Z,78.14
2018-05-15T00:48:02.175Z,78.81
2018-05-15T00:49:02.133Z,78.53
2018-05-15T00:50:02.186Z,78.63
2018-05-15T00:51:02.047Z,78.63
2018-05-15T00:52:02.083Z,79.10
2018-05-15T00:53:01.966Z,78.81
2018-05-15T00:54:01.925Z,78.91
2018-05-15T00:55:01.883Z,79.20
2018-05-15T00:56:01.842Z,79.87
2018-05-15T00:57:01.800Z,79.87
2018-05-15T00:58:01.758Z,79.96
2018-05-15T00:59:01.717Z,80.54
2018-05-15T01:00:01.679Z,79.64
2018-05-15T01:01:01.634Z,81.02
2018-05-15T01:02:01.592Z,81.45
2018-05-15T01:03:01.552Z,81.45
2018-05-15T01:04:01.512Z,82.03
2018-05-15T01:05:01.469Z,81.65
2018-05-15T01:06:01.429Z,81.36
2018-05-15T01:07:01.385Z,81.36
2018-05-15T01:08:01.344Z,81.74
2018-05-15T01:09:01.304Z,81.55
2018-05-15T01:10:01.266Z,81.45
2018-05-15T01:11:01.219Z,81.93
2018-05-15T01:12:01.183Z,82.12
2018-05-15T01:13:01.140Z,82.12
2018-05-15T01:14:01.098Z,82.79
2018-05-15T01:15:01.057Z,83.17
2018-05-15T01:16:01.014Z,83.27
2018-05-15T01:17:00.971Z,83.37
2018-05-15T01:18:00.933Z,83.27
2018-05-15T01:19:00.888Z,82.98
2018-05-15T01:20:00.846Z,83.37
2018-05-15T01:21:00.811Z,83.37
2018-05-15T01:22:00.766Z,83.27
2018-05-15T01:23:00.722Z,83.37
2018-05-15T01:24:00.681Z,83.37
2018-05-15T01:25:00.642Z,83.08
2018-05-15T01:26:00.599Z,82.31
2018-05-15T01:27:00.557Z,82.89
2018-05-15T01:28:00.517Z,82.12
2018-05-15T01:29:00.479Z,82.12
2018-05-15T01:30:00.436Z,81.93
2018-05-15T01:31:00.389Z,81.55
2018-05-15T01:32:00.349Z,81.65
2018-05-15T01:33:00.310Z,81.74
2018-05-15T01:34:00.266Z,81.16
2018-05-15T01:35:00.227Z,81.70
2018-05-15T01:36:00.183Z,81.36
2018-05-15T01:37:00.145Z,81.36
2018-05-15T01:38:00.105Z,81.65
2018-05-15T01:39:00.063Z,81.36
2018-05-15T01:40:00.020Z,81.55
2018-05-15T01:40:59.979Z,82.03
2018-05-15T01:41:59.939Z,81.60
2018-05-15T01:42:59.891Z,81.32
2018-05-15T01:43:59.848Z,81.79
2018-05-15T01:44:59.812Z,81.32
2018-05-15T01:45:59.771Z,82.08
2018-05-15T01:46:59.724Z,81.99
2018-05-15T01:47:59.686Z,82.18
2018-05-15T01:48:59.645Z,82.37
2018-05-15T01:49:59.603Z,81.60
2018-05-15T01:50:59.560Z,81.70
2018-05-15T01:51:59.521Z,81.60
2018-05-15T01:52:59.478Z,81.41
2018-05-15T01:53:59.440Z,81.51
2018-05-15T01:54:59.393Z,81.70
2018-05-15T01:55:59.349Z,81.89
2018-05-15T01:56:59.310Z,81.79
2018-05-15T01:57:59.273Z,81.51
2018-05-15T01:58:59.233Z,81.32
2018-05-15T01:59:59.181Z,81.51
2018-05-15T02:00:59.141Z,81.51
2018-05-15T02:01:59.100Z,81.89
2018-05-15T02:02:59.058Z,81.51
2018-05-15T02:03:59.016Z,81.51
2018-05-15T02:04:58.974Z,82.18
2018-05-15T02:05:58.932Z,81.79
2018-05-15T02:06:58.892Z,82.37
2018-05-15T02:07:58.853Z,82.37
2018-05-15T02:08:58.812Z,82.37
2018-05-15T02:09:58.765Z,82.37
2018-05-15T02:10:58.729Z,81.99
2018-05-15T02:11:58.680Z,82.18
2018-05-15T02:12:58.640Z,82.08
2018-05-15T02:13:58.599Z,82.08
2018-05-15T02:14:58.556Z,81.89
2018-05-15T02:15:58.520Z,82.08
2018-05-15T02:16:58.474Z,82.08
2018-05-15T02:17:58.431Z,82.18
2018-05-15T02:18:58.390Z,82.08
2018-05-15T02:19:58.358Z,82.75
2018-05-15T02:20:58.310Z,82.18
2018-05-15T02:21:58.266Z,82.65
2018-05-15T02:22:58.225Z,82.46
2018-05-15T02:23:58.181Z,82.75
2018-05-15T02:24:58.141Z,82.94
2018-05-15T02:25:58.095Z,83.23
2018-05-15T02:26:58.056Z,83.42
2018-05-15T02:27:58.012Z,83.13
2018-05-15T02:28:57.971Z,83.33
2018-05-15T02:29:57.928Z,83.13
2018-05-15T02:30:57.885Z,83.04
2018-05-15T02:31:57.847Z,82.52
2018-05-15T02:32:57.807Z,82.61
2018-05-15T02:33:57.767Z,82.52
2018-05-15T02:34:57.719Z,82.56
2018-05-15T02:35:57.680Z,82.65
2018-05-15T02:36:57.655Z,82.14
2018-05-15T02:37:57.598Z,82.04
2018-05-15T02:38:57.552Z,82.32
2018-05-15T02:39:57.512Z,81.95
2018-05-15T02:40:57.468Z,81.85
2018-05-15T02:41:57.432Z,81.47
2018-05-15T02:42:57.384Z,81.85
2018-05-15T02:43:57.344Z,81.85
2018-05-15T02:44:57.301Z,81.66
2018-05-15T02:45:57.262Z,82.14
2018-05-15T02:46:57.217Z,82.14
2018-05-15T02:47:57.176Z,82.14
2018-05-15T02:48:57.137Z,82.81
2018-05-15T02:49:57.091Z,83.09
2018-05-15T02:50:57.050Z,83.18
2018-05-15T02:51:57.010Z,83.18
2018-05-15T02:52:56.972Z,83.18
2018-05-15T02:53:56.924Z,83.18
2018-05-15T02:54:56.882Z,83.28
2018-05-15T02:55:56.840Z,83.86
2018-05-15T02:56:56.801Z,83.76
2018-05-15T02:57:56.755Z,83.86
2018-05-15T02:58:56.717Z,84.05
2018-05-15T02:59:56.671Z,83.76
2018-05-15T03:00:56.630Z,83.47
2018-05-15T03:01:56.596Z,83.67
2018-05-15T03:02:56.545Z,83.09
2018-05-15T03:03:56.506Z,83.00
2018-05-15T03:04:56.462Z,83.00
2018-05-15T03:05:56.423Z,83.28
2018-05-15T03:06:56.379Z,83.09
2018-05-15T03:07:56.342Z,83.14
2018-05-15T03:08:56.292Z,82.95
2018-05-15T03:09:56.252Z,83.14
2018-05-15T03:10:56.208Z,83.14
2018-05-15T03:11:56.167Z,83.24
2018-05-15T03:12:56.127Z,83.14
2018-05-15T03:13:56.083Z,83.14
2018-05-15T03:14:56.039Z,83.47
2018-05-15T03:15:55.998Z,83.91
2018-05-15T03:16:55.956Z,84.10
2018-05-15T03:17:55.913Z,83.53
2018-05-15T03:18:55.874Z,83.81
2018-05-15T03:19:55.833Z,83.72
2018-05-15T03:20:55.787Z,83.81
2018-05-15T03:21:55.745Z,84.20
2018-05-15T03:22:55.703Z,84.67
2018-05-15T03:23:55.662Z,84.29
2018-05-15T03:24:55.619Z,84.48
2018-05-15T03:25:55.579Z,84.20
2018-05-15T03:26:55.536Z,84.20
2018-05-15T03:27:55.492Z,84.10
2018-05-15T03:28:55.450Z,84.48
2018-05-15T03:29:55.409Z,83.72
2018-05-15T03:30:55.368Z,83.81
2018-05-15T03:31:55.333Z,83.14
2018-05-15T03:32:55.282Z,83.34
2018-05-15T03:33:55.251Z,82.95
2018-05-15T03:34:55.196Z,82.86
2018-05-15T03:35:55.157Z,83.05
2018-05-15T03:36:55.111Z,83.05
2018-05-15T03:37:55.069Z,83.05
2018-05-15T03:38:55.029Z,82.38
2018-05-15T03:39:54.985Z,82.67
2018-05-15T03:40:54.946Z,82.19
2018-05-15T03:41:54.902Z,82.57
2018-05-15T03:42:54.861Z,82.95
2018-05-15T03:43:54.823Z,83.24
2018-05-15T03:44:54.775Z,83.43
2018-05-15T03:45:54.732Z,83.24
2018-05-15T03:46:54.690Z,83.24
2018-05-15T03:47:54.647Z,82.38
2018-05-15T03:48:54.609Z,82.52
2018-05-15T03:49:54.562Z,82.38
2018-05-15T03:50:54.521Z,83.24
2018-05-15T03:51:54.479Z,82.86
2018-05-15T03:52:54.437Z,83.05
2018-05-15T03:53:54.395Z,83.28
2018-05-15T03:54:54.353Z,83.18
2018-05-15T03:55:54.311Z,83.18
2018-05-15T03:56:54.272Z,83.43
2018-05-15T03:57:54.227Z,83.86
2018-05-15T03:58:54.240Z,83.81
2018-05-15T03:59:54.141Z,83.24
2018-05-15T04:00:54.097Z,83.18
2018-05-15T04:01:54.058Z,82.95
2018-05-15T04:02:54.016Z,83.05
2018-05-15T04:03:53.987Z,82.61
2018-05-15T04:04:53.932Z,82.57
2018-05-15T04:05:53.891Z,83.09
2018-05-15T04:06:53.849Z,83.24
2018-05-15T04:07:53.831Z,83.28
2018-05-15T04:08:53.764Z,82.95
2018-05-15T04:09:53.721Z,82.52
2018-05-15T04:10:53.755Z,82.38
2018-05-15T04:11:53.643Z,82.09
2018-05-15T04:12:53.593Z,81.85
2018-05-15T04:13:53.553Z,81.43
2018-05-15T04:14:53.508Z,81.43
2018-05-15T04:15:53.468Z,81.43
2018-05-15T04:16:53.430Z,81.81
2018-05-15T04:17:53.383Z,81.37
2018-05-15T04:18:53.338Z,82.04
2018-05-15T04:19:53.299Z,81.33
2018-05-15T04:20:53.255Z,81.37
2018-05-15T04:21:53.214Z,81.24
2018-05-15T04:22:53.173Z,81.18
2018-05-15T04:23:53.128Z,81.56
2018-05-15T04:24:53.088Z,81.56
2018-05-15T04:25:53.048Z,81.43
2018-05-15T04:26:53.001Z,82.14
2018-05-15T04:27:52.960Z,81.47
2018-05-15T04:28:52.919Z,81.66
2018-05-15T04:29:52.884Z,81.27
2018-05-15T04:30:52.832Z,81.76
2018-05-15T04:31:52.791Z,81.27
2018-05-15T04:32:52.749Z,81.47
2018-05-15T04:33:52.708Z,82.04
2018-05-15T04:34:52.665Z,81.85
2018-05-15T04:35:52.623Z,82.23
2018-05-15T04:36:52.584Z,81.85
2018-05-15T04:37:52.540Z,82.32
2018-05-15T04:38:52.502Z,82.32
2018-05-15T04:39:52.457Z,82.23
2018-05-15T04:40:52.415Z,81.47
2018-05-15T04:41:52.371Z,81.09
2018-05-15T04:42:52.328Z,81.09
2018-05-15T04:43:52.504Z,81.27
2018-05-15T04:44:52.244Z,80.99
2018-05-15T04:45:52.204Z,81.37
2018-05-15T04:46:52.166Z,81.27
2018-05-15T04:47:52.117Z,80.99
2018-05-15T04:48:52.076Z,80.80
2018-05-15T04:49:52.034Z,80.04
2018-05-15T04:50:51.993Z,79.88
2018-05-15T04:51:51.955Z,80.65
2018-05-15T04:52:51.920Z,79.75
2018-05-15T04:53:51.886Z,79.75
2018-05-15T04:54:51.828Z,79.31
2018-05-15T04:55:51.782Z,79.22
2018-05-15T04:56:51.744Z,78.83
2018-05-15T04:57:51.700Z,78.74
2018-05-15T04:58:51.658Z,78.45
2018-05-15T04:59:51.613Z,78.16
2018-05-15T05:00:51.576Z,77.69
2018-05-15T05:01:51.532Z,78.16
2018-05-15T05:02:51.488Z,78.55
2018-05-15T05:03:51.491Z,78.45
2018-05-15T05:04:51.410Z,77.78
2018-05-15T05:05:51.365Z,77.44
2018-05-15T05:06:51.320Z,76.96
2018-05-15T05:07:51.278Z,77.15
2018-05-15T05:08:51.320Z,77.15
2018-05-15T05:09:51.197Z,77.06
2018-05-15T05:10:51.155Z,76.86
2018-05-15T05:11:51.190Z,76.86
2018-05-15T05:12:51.076Z,76.96
2018-05-15T05:13:51.042Z,77.06
2018-05-15T05:14:50.989Z,76.57
2018-05-15T05:15:50.949Z,76.48
2018-05-15T05:16:50.903Z,76.57
2018-05-15T05:17:50.861Z,76.77
2018-05-15T05:18:50.820Z,77.25
2018-05-15T05:19:50.779Z,76.39
2018-05-15T05:20:50.736Z,76.57
2018-05-15T05:21:50.842Z,76.29
2018-05-15T05:22:50.652Z,76.42
2018-05-15T05:23:50.609Z,76.71
2018-05-15T05:24:50.568Z,76.42
2018-05-15T05:25:50.529Z,75.76
2018-05-15T05:26:50.484Z,74.70
2018-05-15T05:27:50.446Z,74.90
2018-05-15T05:28:50.408Z,74.70
2018-05-15T05:29:50.361Z,73.65
2018-05-15T05:30:50.318Z,72.69
2018-05-15T05:31:50.277Z,73.75
2018-05-15T05:32:50.266Z,72.79
2018-05-15T05:33:50.194Z,72.69
2018-05-15T05:34:50.157Z,72.98
2018-05-15T05:35:50.111Z,72.98
2018-05-15T05:36:50.071Z,73.21
2018-05-15T05:37:50.033Z,71.68
2018-05-15T05:38:49.987Z,71.20
2018-05-15T05:39:49.947Z,72.54
2018-05-15T05:40:49.911Z,72.06
2018-05-15T05:41:49.867Z,71.20
2018-05-15T05:42:49.821Z,71.39
2018-05-15T05:43:49.782Z,71.01
2018-05-15T05:44:49.741Z,71.39
2018-05-15T05:45:49.697Z,70.24
2018-05-15T05:46:49.655Z,70.05
2018-05-15T05:47:49.614Z,69.38
2018-05-15T05:48:49.574Z,69.70
2018-05-15T05:49:49.531Z,70.09
2018-05-15T05:50:49.491Z,68.84
2018-05-15T05:51:49.451Z,68.84
2018-05-15T05:52:49.407Z,68.94
2018-05-15T05:53:49.368Z,69.32
2018-05-15T05:54:49.326Z,68.74
2018-05-15T05:55:49.288Z,69.51
2018-05-15T05:56:49.243Z,68.84
2018-05-15T05:57:49.203Z,69.42
2018-05-15T05:58:49.162Z,68.84
2018-05-15T05:59:49.122Z,68.74
2018-05-15T06:00:49.081Z,68.36
2018-05-15T06:01:49.038Z,68.65
2018-05-15T06:02:48.999Z,68.11
2018-05-15T06:03:48.955Z,68.46
2018-05-15T06:04:48.919Z,67.72
2018-05-15T06:05:48.876Z,67.63
2018-05-15T06:06:48.837Z,67.63
2018-05-15T06:07:48.797Z,67.82
2018-05-15T06:08:48.753Z,67.44
2018-05-15T06:09:48.713Z,66.58
2018-05-15T06:10:48.669Z,66.58
2018-05-15T06:11:48.632Z,66.77
2018-05-15T06:12:48.587Z,66.58
2018-05-15T06:13:48.549Z,67.25
2018-05-15T06:14:48.505Z,67.57
2018-05-15T06:15:48.465Z,66.51
2018-05-15T06:16:48.422Z,67.18
2018-05-15T06:17:48.385Z,66.89
2018-05-15T06:18:48.344Z,66.03
2018-05-15T06:19:48.320Z,66.42
2018-05-15T06:20:48.329Z,66.80
2018-05-15T06:21:48.224Z,65.84
2018-05-15T06:22:48.177Z,65.17
2018-05-15T06:23:48.136Z,64.79
2018-05-15T06:24:48.097Z,65.26
2018-05-15T06:25:48.056Z,64.69
2018-05-15T06:26:48.013Z,63.92
2018-05-15T06:27:47.977Z,64.34
2018-05-15T06:28:47.934Z,65.39
2018-05-15T06:29:47.892Z,64.92
2018-05-15T06:30:47.850Z,64.63
2018-05-15T06:31:47.820Z,64.43
2018-05-15T06:32:47.772Z,63.96
2018-05-15T06:33:47.730Z,63.57
2018-05-15T06:34:47.692Z,64.15
2018-05-15T06:35:47.650Z,63.48
2018-05-15T06:36:47.610Z,64.05
2018-05-15T06:37:47.566Z,63.29
2018-05-15T06:38:47.529Z,63.32
2018-05-15T06:39:47.485Z,63.79
2018-05-15T06:40:47.446Z,64.18
2018-05-15T06:41:47.406Z,62.93
2018-05-15T06:42:47.365Z,61.88
2018-05-15T06:43:47.324Z,62.07
2018-05-15T06:44:47.291Z,62.84
2018-05-15T06:45:47.244Z,63.03
2018-05-15T06:46:47.207Z,62.26
2018-05-15T06:47:47.161Z,62.16
2018-05-15T06:48:47.129Z,62.84
2018-05-15T06:49:47.082Z,61.88
2018-05-15T06:50:47.042Z,60.38
2018-05-15T06:51:47.001Z,60.66
2018-05-15T06:52:46.962Z,60.57
2018-05-15T06:53:46.924Z,60.85
2018-05-15T06:54:46.885Z,60.66
2018-05-15T06:55:46.843Z,60.47
2018-05-15T06:56:46.803Z,59.99
2018-05-15T06:57:46.764Z,59.51
2018-05-15T06:58:46.727Z,60.28
2018-05-15T06:59:46.680Z,59.99
2018-05-15T07:00:46.642Z,59.99
2018-05-15T07:01:46.622Z,59.03
2018-05-15T07:02:46.559Z,59.25
2018-05-15T07:03:46.521Z,58.58
2018-05-15T07:04:46.481Z,58.58
2018-05-15T07:05:46.443Z,57.81
2018-05-15T07:06:46.400Z,58.39
2018-05-15T07:07:46.442Z,58.00
2018-05-15T07:08:46.321Z,57.23
2018-05-15T07:09:46.280Z,56.66
2018-05-15T07:10:46.245Z,56.95
2018-05-15T07:11:46.210Z,57.52
2018-05-15T07:12:46.161Z,56.56
2018-05-15T07:13:46.127Z,56.98
2018-05-15T07:14:46.081Z,57.45
2018-05-15T07:15:46.041Z,56.88
2018-05-15T07:16:46.002Z,57.65
2018-05-15T07:17:45.965Z,58.61
2018-05-15T07:18:45.921Z,57.65
2018-05-15T07:19:45.883Z,57.36
2018-05-15T07:20:45.841Z,57.55
2018-05-15T07:21:45.802Z,57.29
2018-05-15T07:22:45.762Z,57.00
2018-05-15T07:23:45.722Z,57.00
2018-05-15T07:24:45.688Z,57.00
2018-05-15T07:25:45.643Z,57.39
2018-05-15T07:26:45.605Z,56.81
2018-05-15T07:27:45.565Z,55.94
2018-05-15T07:28:45.533Z,57.00
2018-05-15T07:29:45.487Z,57.10
2018-05-15T07:30:45.446Z,55.56
2018-05-15T07:31:45.407Z,55.59
2018-05-15T07:32:45.439Z,55.88
2018-05-15T07:33:45.328Z,55.68
2018-05-15T07:34:45.289Z,55.88
2018-05-15T07:35:45.250Z,55.88
2018-05-15T07:36:45.210Z,53.66
2018-05-15T07:37:45.172Z,53.96
2018-05-15T07:38:45.132Z,53.57
2018-05-15T07:39:45.094Z,54.14
2018-05-15T07:40:45.055Z,54.82
2018-05-15T07:41:45.013Z,54.65
2018-05-15T07:42:44.974Z,55.33
2018-05-15T07:43:44.935Z,55.81
2018-05-15T07:44:44.898Z,55.52
2018-05-15T07:45:44.859Z,54.75
2018-05-15T07:46:44.817Z,54.10
2018-05-15T07:47:44.780Z,53.53
2018-05-15T07:48:44.742Z,51.92
2018-05-15T07:49:44.702Z,52.13
2018-05-15T07:50:44.661Z,51.36
2018-05-15T07:51:44.623Z,51.00
2018-05-15T07:52:44.583Z,50.06
2018-05-15T07:53:44.665Z,48.83
2018-05-15T07:54:44.509Z,48.54
2018-05-15T07:55:44.468Z,46.92
2018-05-15T07:56:44.432Z,45.48
2018-05-15T07:57:44.391Z,45.89
2018-05-15T07:58:44.354Z,44.53
2018-05-15T07:59:44.313Z,45.21
2018-05-15T08:00:44.274Z,45.11
2018-05-15T08:01:44.239Z,44.56
2018-05-15T08:02:44.201Z,44.75
2018-05-15T08:03:44.163Z,44.36
2018-05-15T08:04:44.124Z,44.09
2018-05-15T08:05:44.085Z,44.19
2018-05-15T08:06:44.048Z,43.61
2018-05-15T08:07:44.009Z,43.99
2018-05-15T08:08:43.975Z,44.57
2018-05-15T08:09:43.937Z,44.09
2018-05-15T08:10:43.897Z,43.15
2018-05-15T08:11:43.858Z,42.96
2018-05-15T08:12:43.821Z,43.44
2018-05-15T08:13:43.787Z,42.18
2018-05-15T08:14:43.747Z,42.08
2018-05-15T08:15:43.708Z,41.70
2018-05-15T08:16:43.703Z,41.79
2018-05-15T08:17:43.638Z,42.40
2018-05-15T08:18:43.595Z,41.82
2018-05-15T08:19:43.560Z,41.62
2018-05-15T08:20:43.524Z,41.04
2018-05-15T08:21:43.486Z,41.52
2018-05-15T08:22:43.451Z,40.65
2018-05-15T08:23:43.412Z,40.46
2018-05-15T08:24:43.375Z,39.69
2018-05-15T08:25:43.337Z,41.82
2018-05-15T08:26:43.302Z,41.52
2018-05-15T08:27:43.265Z,41.55
2018-05-15T08:28:43.228Z,40.09
2018-05-15T08:29:43.194Z,40.77
2018-05-15T08:30:43.231Z,40.38
2018-05-15T08:31:43.120Z,39.22
2018-05-15T08:32:43.079Z,39.70
2018-05-15T08:33:43.043Z,39.32
2018-05-15T08:34:43.008Z,38.54
2018-05-15T08:35:42.969Z,39.12
2018-05-15T08:36:42.935Z,38.64
2018-05-15T08:37:42.964Z,37.88
2018-05-15T08:38:42.859Z,37.77
2018-05-15T08:39:44.676Z,37.87
2018-05-15T08:40:42.785Z,37.77
2018-05-15T08:41:42.751Z,38.46
2018-05-15T08:42:42.716Z,38.37
2018-05-15T08:43:42.677Z,39.04
2018-05-15T08:44:42.644Z,39.04
2018-05-15T08:45:42.605Z,39.62
2018-05-15T08:46:42.569Z,39.65
2018-05-15T08:47:42.533Z,39.16
2018-05-15T08:48:42.493Z,38.29
2018-05-15T08:49:42.457Z,36.64
2018-05-15T08:50:42.427Z,36.93
2018-05-15T08:51:42.390Z,37.61
2018-05-15T08:52:42.350Z,37.51
2018-05-15T08:53:42.315Z,36.35
2018-05-15T08:54:42.276Z,35.69
2018-05-15T08:55:42.247Z,35.69
2018-05-15T08:56:42.205Z,35.96
2018-05-15T08:57:42.167Z,34.51
2018-05-15T08:58:42.132Z,35.19
2018-05-15T08:59:42.094Z,35.38
2018-05-15T09:00:42.062Z,35.77
2018-05-15T09:01:42.031Z,35.40
2018-05-15T09:02:41.990Z,35.11
2018-05-15T09:03:41.951Z,35.49
2018-05-15T09:04:41.924Z,35.59
2018-05-15T09:05:41.884Z,35.01
2018-05-15T09:06:41.842Z,34.72
2018-05-15T09:07:41.813Z,34.31
2018-05-15T09:08:41.775Z,35.28
2018-05-15T09:09:41.739Z,35.67
2018-05-15T09:10:41.705Z,36.08
2018-05-15T09:11:41.665Z,36.66
2018-05-15T09:12:41.630Z,37.15
2018-05-15T09:13:41.595Z,36.85
2018-05-15T09:14:41.558Z,36.46
2018-05-15T09:15:41.528Z,33.94
2018-05-15T09:16:41.491Z,34.04
2018-05-15T09:17:41.454Z,35.11
2018-05-15T09:18:41.417Z,34.81
2018-05-15T09:19:41.380Z,35.22
2018-05-15T09:20:41.343Z,34.91
2018-05-15T09:21:41.306Z,35.51
2018-05-15T09:22:41.271Z,35.22
2018-05-15T09:23:41.233Z,33.47
2018-05-15T09:24:41.204Z,33.28
2018-05-15T09:25:41.173Z,33.38
2018-05-15T09:26:41.134Z,33.28
2018-05-15T09:27:41.091Z,33.76
2018-05-15T09:28:41.055Z,33.69
2018-05-15T09:29:41.024Z,33.38
2018-05-15T09:30:40.986Z,33.98
2018-05-15T09:31:40.955Z,34.17
2018-05-15T09:32:40.916Z,33.88
2018-05-15T09:33:40.885Z,31.35
2018-05-15T09:34:40.843Z,31.94
2018-05-15T09:35:40.812Z,31.45
2018-05-15T09:36:40.774Z,31.65
2018-05-15T09:37:40.740Z,32.91
2018-05-15T09:38:40.701Z,33.49
2018-05-15T09:39:40.667Z,32.91
2018-05-15T09:40:44.834Z,32.32
2018-05-15T09:41:40.596Z,31.76
2018-05-15T09:42:40.562Z,31.84
2018-05-15T09:43:40.526Z,31.74
2018-05-15T09:44:40.488Z,33.29
2018-05-15T09:45:40.455Z,32.91
2018-05-15T09:46:40.420Z,31.76
2018-05-15T09:47:40.386Z,32.82
2018-05-15T09:48:40.347Z,33.02
2018-05-15T09:49:40.311Z,31.66
2018-05-15T09:50:40.278Z,31.57
2018-05-15T09:51:40.246Z,31.57
2018-05-15T09:52:40.208Z,31.37
2018-05-15T09:53:40.175Z,31.66
2018-05-15T09:54:40.156Z,30.40
2018-05-15T09:55:40.103Z,31.57
2018-05-15T09:56:40.067Z,31.47
2018-05-15T09:57:40.033Z,31.10
2018-05-15T09:58:39.996Z,31.19
2018-05-15T09:59:39.960Z,30.90
2018-05-15T10:00:39.938Z,31.00
2018-05-15T10:01:39.893Z,30.41
2018-05-15T10:02:39.861Z,30.61
2018-05-15T10:03:39.823Z,31.00
2018-05-15T10:04:39.789Z,30.51
2018-05-15T10:05:39.756Z,30.11
2018-05-15T10:06:39.717Z,30.41
2018-05-15T10:07:39.729Z,31.19
2018-05-15T10:08:39.648Z,32.45
2018-05-15T10:09:39.610Z,30.71
2018-05-15T10:10:39.582Z,30.51
2018-05-15T10:11:39.548Z,30.12
2018-05-15T10:12:39.510Z,30.22
2018-05-15T10:13:39.473Z,30.22
2018-05-15T10:14:39.437Z,30.71
2018-05-15T10:15:39.404Z,31.58
2018-05-15T10:16:39.371Z,30.22
2018-05-15T10:17:39.337Z,29.85
2018-05-15T10:18:39.300Z,30.04
2018-05-15T10:19:39.266Z,30.04
2018-05-15T10:20:39.231Z,29.38
2018-05-15T10:21:39.193Z,30.05
2018-05-15T10:22:39.161Z,28.89
2018-05-15T10:23:39.133Z,29.57
2018-05-15T10:24:39.091Z,29.28
2018-05-15T10:25:39.058Z,29.47
2018-05-15T10:26:39.027Z,28.79
2018-05-15T10:27:39.001Z,28.70
2018-05-15T10:28:38.955Z,28.90
2018-05-15T10:29:38.919Z,29.78
2018-05-15T10:30:38.881Z,28.61
2018-05-15T10:31:38.848Z,27.93
2018-05-15T10:32:38.815Z,27.05
2018-05-15T10:33:38.780Z,27.64
2018-05-15T10:34:38.744Z,26.95
2018-05-15T10:35:38.717Z,27.44
2018-05-15T10:36:38.677Z,27.93
2018-05-15T10:37:38.646Z,27.73
2018-05-15T10:38:38.607Z,27.64
2018-05-15T10:39:38.576Z,27.93
2018-05-15T10:40:38.541Z,28.70
2018-05-15T10:41:38.506Z,29.39
2018-05-15T10:42:38.473Z,28.13
2018-05-15T10:43:38.438Z,28.51
2018-05-15T10:44:38.404Z,27.25
2018-05-15T10:45:38.372Z,28.42
2018-05-15T10:46:38.338Z,28.32
2018-05-15T10:47:38.298Z,27.45
2018-05-15T10:48:38.268Z,27.06
2018-05-15T10:49:38.231Z,27.55
2018-05-15T10:50:38.245Z,27.65
2018-05-15T10:51:38.163Z,28.04
2018-05-15T10:52:38.127Z,28.82
2018-05-15T10:53:38.101Z,28.72
2018-05-15T10:54:38.061Z,27.28
2018-05-15T10:55:38.028Z,25.91
2018-05-15T10:56:37.994Z,25.02
2018-05-15T10:57:37.962Z,25.51
2018-05-15T10:58:37.927Z,26.09
2018-05-15T10:59:37.896Z,26.78
2018-05-15T11:00:37.867Z,27.26
2018-05-15T11:01:37.824Z,27.66
2018-05-15T11:02:37.790Z,25.52
2018-05-15T11:03:37.756Z,25.71
2018-05-15T11:04:37.721Z,25.52
2018-05-15T11:05:37.686Z,26.51
2018-05-15T11:06:37.652Z,25.92
2018-05-15T11:07:37.618Z,25.43
2018-05-15T11:08:37.592Z,26.02
2018-05-15T11:09:37.552Z,25.04
2018-05-15T11:10:37.517Z,24.08
2018-05-15T11:11:37.483Z,24.48
2018-05-15T11:12:37.519Z,24.28
2018-05-15T11:13:37.420Z,24.29
2018-05-15T11:14:37.386Z,25.26
2018-05-15T11:15:37.354Z,24.40
2018-05-15T11:16:37.322Z,25.47
2018-05-15T11:17:37.287Z,23.73
2018-05-15T11:18:37.338Z,23.63
2018-05-15T11:19:37.219Z,22.96
2018-05-15T11:20:37.186Z,22.87
2018-05-15T11:21:37.150Z,22.58
2018-05-15T11:22:37.116Z,22.08
2018-05-15T11:23:37.085Z,22.58
2018-05-15T11:24:37.117Z,22.19
2018-05-15T11:25:37.017Z,22.28
2018-05-15T11:26:36.986Z,22.69
2018-05-15T11:27:36.950Z,22.30
2018-05-15T11:28:36.920Z,21.42
2018-05-15T11:29:36.885Z,21.03
2018-05-15T11:30:36.904Z,20.85
2018-05-15T11:31:36.823Z,21.53
2018-05-15T11:32:36.791Z,21.06
2018-05-15T11:33:36.759Z,19.49
2018-05-15T11:34:36.721Z,19.87
2018-05-15T11:35:36.699Z,19.57
2018-05-15T11:36:36.664Z,20.36
2018-05-15T11:37:36.631Z,20.96
2018-05-15T11:38:36.588Z,20.96
2018-05-15T11:39:36.555Z,19.59
2018-05-15T11:40:36.522Z,19.88
2018-05-15T11:41:36.557Z,20.47
2018-05-15T11:42:36.456Z,19.88
2018-05-15T11:43:36.422Z,20.86
2018-05-15T11:44:36.392Z,20.27
2018-05-15T11:45:36.357Z,20.65
2018-05-15T11:46:36.326Z,20.85
2018-05-15T11:47:36.502Z,21.25
2018-05-15T11:48:36.794Z,21.45
2018-05-15T11:49:37.055Z,22.14
2018-05-15T11:50:37.093Z,20.97
2018-05-15T11:51:37.040Z,20.59
2018-05-15T11:52:36.596Z,20.20
2018-05-15T11:53:36.091Z,20.12
2018-05-15T11:54:36.064Z,20.61
2018-05-15T11:55:42.710Z,19.34
2018-05-15T11:56:36.033Z,18.16
2018-05-15T11:57:35.963Z,19.24
2018-05-15T11:58:35.928Z,19.06
2018-05-15T11:59:35.896Z,18.18
2018-05-15T12:00:35.867Z,19.17
2018-05-15T12:01:35.836Z,19.56
2018-05-15T12:02:35.886Z,18.46
2018-05-15T12:03:35.767Z,18.16
2018-05-15T12:04:35.735Z,19.44
2018-05-15T12:05:35.705Z,19.64
2018-05-15T12:06:35.701Z,19.54
2018-05-15T12:07:35.639Z,19.16
2018-05-15T12:08:35.605Z,18.00
2018-05-15T12:09:35.574Z,18.10
2018-05-15T12:10:35.552Z,17.13
2018-05-15T12:11:35.508Z,17.24
2018-05-15T12:12:35.477Z,17.44
2018-05-15T12:13:35.445Z,16.95
2018-05-15T12:14:35.413Z,16.56
2018-05-15T12:15:35.380Z,17.16
2018-05-15T12:16:35.353Z,16.47
2018-05-15T12:17:35.320Z,15.70
2018-05-15T12:18:35.290Z,16.09
2018-05-15T12:19:35.258Z,16.00
2018-05-15T12:20:35.229Z,15.20
2018-05-15T12:21:35.193Z,15.41
2018-05-15T12:22:35.161Z,15.01
2018-05-15T12:23:35.128Z,14.52
2018-05-15T12:24:35.173Z,15.81
2018-05-15T12:25:35.063Z,14.93
2018-05-15T12:26:35.034Z,15.12
2018-05-15T12:27:35.004Z,14.13
2018-05-15T12:28:34.975Z,14.53
2018-05-15T12:29:34.941Z,15.32
2018-05-15T12:30:34.907Z,14.34
2018-05-15T12:31:34.880Z,14.84
2018-05-15T12:32:34.847Z,14.75
2018-05-15T12:33:34.824Z,14.35
2018-05-15T12:34:34.788Z,14.65
2018-05-15T12:35:34.760Z,14.16
2018-05-15T12:36:34.730Z,14.07
2018-05-15T12:37:34.695Z,13.47
2018-05-15T12:38:34.664Z,13.18
2018-05-15T12:39:34.637Z,13.28
2018-05-15T12:40:34.605Z,13.28
2018-05-15T12:41:34.595Z,13.47
2018-05-15T12:42:34.548Z,13.87
2018-05-15T12:43:34.527Z,14.48
2018-05-15T12:44:34.486Z,13.98
2018-05-15T12:45:34.464Z,14.78
2018-05-15T12:46:34.427Z,13.59
2018-05-15T12:47:34.401Z,13.68
2018-05-15T12:48:34.433Z,13.20
2018-05-15T12:49:34.340Z,13.79
2018-05-15T12:50:34.384Z,13.30
2018-05-15T12:51:34.282Z,13.70